createdAt,value
2023-12-30T00:00:25.283Z,2.40
2023-12-30T00:02:54.353Z,2.00
2023-12-30T00:05:22.672Z,2.67
2023-12-30T00:07:50.351Z,3.03
2023-12-30T00:10:18.143Z,3.17
2023-12-30T00:12:45.904Z,2.05
2023-12-30T00:15:14.003Z,2.20
2023-12-30T00:17:41.824Z,2.88
2023-12-30T00:20:11.841Z,2.53
2023-12-30T00:22:39.750Z,2.63
2023-12-30T00:25:08.464Z,2.10
2023-12-30T00:27:36.232Z,2.80
2023-12-30T00:30:04.376Z,3.55
2023-12-30T00:32:33.703Z,3.65
2023-12-30T00:35:01.543Z,2.15
2023-12-30T00:37:30.575Z,1.90
2023-12-30T00:39:58.303Z,2.45
2023-12-30T00:42:26.026Z,2.45
2023-12-30T00:44:53.698Z,2.38
2023-12-30T00:47:21.367Z,1.90
2023-12-30T00:49:48.993Z,2.50
2023-12-30T00:52:16.685Z,3.03
2023-12-30T00:54:51.561Z,2.55
2023-12-30T00:57:19.582Z,1.92
2023-12-30T00:59:47.253Z,2.35
2023-12-30T01:02:14.986Z,3.38
2023-12-30T01:04:42.884Z,2.75
2023-12-30T01:07:10.568Z,1.77
2023-12-30T01:09:38.398Z,2.13
2023-12-30T01:12:08.767Z,2.30
2023-12-30T01:14:37.767Z,2.63
2023-12-30T01:17:06.191Z,2.17
2023-12-30T01:19:33.976Z,2.50
2023-12-30T01:22:01.716Z,2.70
2023-12-30T01:24:30.753Z,2.25
2023-12-30T01:26:58.429Z,3.05
2023-12-30T01:29:30.303Z,2.60
2023-12-30T01:31:58.600Z,2.05
2023-12-30T01:34:26.482Z,2.30
2023-12-30T01:36:55.622Z,2.33
2023-12-30T01:39:23.321Z,2.33
2023-12-30T01:41:52.834Z,2.38
2023-12-30T01:44:20.589Z,2.42
2023-12-30T01:46:50.367Z,2.42
2023-12-30T01:49:18.540Z,2.55
2023-12-30T01:51:50.480Z,2.50
2023-12-30T01:54:19.633Z,2.40
2023-12-30T01:56:47.537Z,2.22
2023-12-30T01:59:16.507Z,2.63
2023-12-30T02:01:46.079Z,2.80
2023-12-30T02:04:15.490Z,2.90
2023-12-30T02:06:43.472Z,2.45
2023-12-30T02:09:11.331Z,1.80
2023-12-30T02:11:39.944Z,2.75
2023-12-30T02:14:25.740Z,2.97
2023-12-30T02:16:53.471Z,3.00
2023-12-30T02:19:22.808Z,2.58
2023-12-30T02:21:50.963Z,2.25
2023-12-30T02:24:21.276Z,2.67
2023-12-30T02:26:49.140Z,3.95
2023-12-30T02:29:16.954Z,2.28
2023-12-30T02:31:48.353Z,2.08
2023-12-30T02:34:16.932Z,2.63
2023-12-30T02:36:44.844Z,3.00
2023-12-30T02:39:12.656Z,3.00
2023-12-30T02:41:41.962Z,3.00
2023-12-30T02:44:10.355Z,2.80
2023-12-30T02:46:38.692Z,2.40
2023-12-30T02:49:06.725Z,3.10
2023-12-30T02:51:35.066Z,3.05
2023-12-30T02:54:03.463Z,3.03
2023-12-30T02:56:31.129Z,2.30
2023-12-30T02:59:01.765Z,3.25
2023-12-30T03:01:30.708Z,1.90
2023-12-30T03:04:00.876Z,2.75
2023-12-30T03:06:29.203Z,3.38
2023-12-30T03:08:56.981Z,3.45
2023-12-30T03:11:25.095Z,2.75
2023-12-30T03:13:52.796Z,2.15
2023-12-30T03:16:22.000Z,4.30
2023-12-30T03:18:49.939Z,2.97
2023-12-30T03:21:19.449Z,2.80
2023-12-30T03:23:47.162Z,2.55
2023-12-30T03:26:15.031Z,3.42
2023-12-30T03:28:44.085Z,2.67
2023-12-30T03:31:22.818Z,2.33
2023-12-30T03:33:51.153Z,3.05
2023-12-30T03:36:19.037Z,2.75
2023-12-30T03:38:48.160Z,2.88
2023-12-30T03:41:15.977Z,2.90
2023-12-30T03:43:43.645Z,3.25
2023-12-30T03:46:11.366Z,2.88
2023-12-30T03:48:40.617Z,2.58
2023-12-30T03:51:08.503Z,2.45
2023-12-30T03:53:36.240Z,2.53
2023-12-30T03:56:03.941Z,2.47
2023-12-30T03:58:31.756Z,2.95
2023-12-30T04:00:59.576Z,3.15
2023-12-30T04:03:27.325Z,2.17
2023-12-30T04:05:56.453Z,2.63
2023-12-30T04:08:24.119Z,2.50
2023-12-30T04:10:52.031Z,2.70
2023-12-30T04:13:19.730Z,2.78
2023-12-30T04:15:47.463Z,2.67
2023-12-30T04:18:15.205Z,3.67
2023-12-30T04:20:42.892Z,2.53
2023-12-30T04:23:12.445Z,3.92
2023-12-30T04:25:40.146Z,2.38
2023-12-30T04:28:07.900Z,2.70
2023-12-30T04:30:35.766Z,2.33
2023-12-30T04:33:04.580Z,2.63
2023-12-30T04:35:36.089Z,3.60
2023-12-30T04:38:04.162Z,3.00
2023-12-30T04:40:33.384Z,3.50
2023-12-30T04:43:01.482Z,2.72
2023-12-30T04:45:29.865Z,2.38
2023-12-30T04:47:57.581Z,2.55
2023-12-30T04:50:26.497Z,2.35
2023-12-30T04:52:54.263Z,2.50
2023-12-30T04:55:22.784Z,4.65
2023-12-30T04:57:51.903Z,3.05
2023-12-30T05:00:21.869Z,3.05
2023-12-30T05:02:51.162Z,2.28
2023-12-30T05:05:18.935Z,3.38
2023-12-30T05:07:46.788Z,2.53
2023-12-30T05:10:15.285Z,2.00
2023-12-30T05:12:43.429Z,2.85
2023-12-30T05:15:15.398Z,2.97
2023-12-30T05:17:43.717Z,2.13
2023-12-30T05:20:13.524Z,2.75
2023-12-30T05:22:42.019Z,2.50
2023-12-30T05:25:10.426Z,2.92
2023-12-30T05:27:38.609Z,2.65
2023-12-30T05:30:08.491Z,4.28
2023-12-30T05:32:37.743Z,2.85
2023-12-30T05:35:06.102Z,3.28
2023-12-30T05:37:33.961Z,2.67
2023-12-30T05:40:01.856Z,2.78
2023-12-30T05:42:29.606Z,2.92
2023-12-30T05:44:57.248Z,2.75
2023-12-30T05:47:24.951Z,3.33
2023-12-30T05:49:54.068Z,2.83
2023-12-30T05:52:21.767Z,2.53
2023-12-30T05:54:49.483Z,2.75
2023-12-30T05:57:17.213Z,2.60
2023-12-30T05:59:44.890Z,2.65
2023-12-30T06:02:12.585Z,3.35
2023-12-30T06:04:41.541Z,2.53
2023-12-30T06:07:11.416Z,2.47
2023-12-30T06:09:39.134Z,2.97
2023-12-30T06:12:07.549Z,3.70
2023-12-30T06:14:37.323Z,3.22
2023-12-30T06:17:05.155Z,2.33
2023-12-30T06:19:34.551Z,2.85
2023-12-30T06:22:02.269Z,3.17
2023-12-30T06:24:31.628Z,3.35
2023-12-30T06:26:59.340Z,2.90
2023-12-30T06:29:29.666Z,2.65
2023-12-30T06:31:59.136Z,4.40
2023-12-30T06:34:26.885Z,4.03
2023-12-30T06:36:54.619Z,3.97
2023-12-30T06:39:22.400Z,3.15
2023-12-30T06:41:51.408Z,3.92
2023-12-30T06:44:19.696Z,3.03
2023-12-30T06:46:47.976Z,3.05
2023-12-30T06:49:16.691Z,3.05
2023-12-30T06:51:44.565Z,4.55
2023-12-30T06:54:12.611Z,3.60
2023-12-30T06:56:40.266Z,2.65
2023-12-30T06:59:10.884Z,2.88
2023-12-30T07:01:41.411Z,3.60
2023-12-30T07:04:09.526Z,3.08
2023-12-30T07:06:37.270Z,3.05
2023-12-30T07:09:05.056Z,3.70
2023-12-30T07:11:32.677Z,3.45
2023-12-30T07:14:00.454Z,3.13
2023-12-30T07:16:29.507Z,3.15
2023-12-30T07:18:57.388Z,3.47
2023-12-30T07:21:25.256Z,2.80
2023-12-30T07:23:52.909Z,3.30
2023-12-30T07:26:20.863Z,2.92
2023-12-30T07:28:48.571Z,3.40
2023-12-30T07:31:16.536Z,3.63
2023-12-30T07:33:45.676Z,4.65
2023-12-30T07:36:14.104Z,3.60
2023-12-30T07:38:41.847Z,3.42
2023-12-30T07:41:09.668Z,2.75
2023-12-30T07:43:37.899Z,3.22
2023-12-30T07:46:05.968Z,2.58
2023-12-30T07:48:33.675Z,4.80
2023-12-30T07:51:02.768Z,2.70
2023-12-30T07:53:30.414Z,2.97
2023-12-30T07:55:58.472Z,2.60
2023-12-30T07:58:26.150Z,4.68
2023-12-30T08:00:53.969Z,1.90
2023-12-30T08:03:22.721Z,2.72
2023-12-30T08:05:50.455Z,3.13
2023-12-30T08:08:20.344Z,2.97
2023-12-30T08:10:48.031Z,2.33
2023-12-30T08:13:17.336Z,2.88
2023-12-30T08:15:45.162Z,2.70
2023-12-30T08:18:13.472Z,2.92
2023-12-30T08:20:41.301Z,2.40
2023-12-30T08:23:09.038Z,2.90
2023-12-30T08:25:38.342Z,3.10
2023-12-30T08:28:06.168Z,2.30
2023-12-30T08:30:33.874Z,3.38
2023-12-30T08:33:05.625Z,3.20
2023-12-30T08:35:33.727Z,2.80
2023-12-30T08:38:01.504Z,3.00
2023-12-30T08:40:31.113Z,3.22
2023-12-30T08:43:01.275Z,3.05
2023-12-30T08:45:29.172Z,2.85
2023-12-30T08:47:57.024Z,2.75
2023-12-30T08:50:24.779Z,2.65
2023-12-30T08:52:52.472Z,3.55
2023-12-30T08:55:20.457Z,3.28
2023-12-30T08:57:48.297Z,2.80
2023-12-30T09:00:18.363Z,3.30
2023-12-30T09:02:48.922Z,3.05
2023-12-30T09:05:19.020Z,2.83
2023-12-30T09:07:46.816Z,3.53
2023-12-30T09:10:14.652Z,3.90
2023-12-30T09:12:42.376Z,3.33
2023-12-30T09:15:10.639Z,2.40
2023-12-30T09:17:40.076Z,3.28
2023-12-30T09:20:08.815Z,2.60
2023-12-30T09:22:36.851Z,2.80
2023-12-30T09:25:04.839Z,3.45
2023-12-30T09:27:33.437Z,3.67
2023-12-30T09:30:01.207Z,3.30
2023-12-30T09:32:29.014Z,4.30
2023-12-30T09:34:58.289Z,3.25
2023-12-30T09:37:26.061Z,4.50
2023-12-30T09:39:54.899Z,3.17
2023-12-30T09:42:23.013Z,3.17
2023-12-30T09:44:51.828Z,3.22
2023-12-30T09:47:20.034Z,3.80
2023-12-30T09:49:49.072Z,4.80
2023-12-30T09:52:18.193Z,3.67
2023-12-30T09:54:49.412Z,2.85
2023-12-30T09:57:18.281Z,3.97
2023-12-30T09:59:47.759Z,4.88
2023-12-30T10:02:15.933Z,3.53
2023-12-30T10:04:44.138Z,4.30
2023-12-30T10:07:12.964Z,3.50
2023-12-30T10:09:42.211Z,3.28
2023-12-30T10:12:11.249Z,4.68
2023-12-30T10:14:39.603Z,4.00
2023-12-30T10:17:07.415Z,3.83
2023-12-30T10:19:35.176Z,3.60
2023-12-30T10:22:03.021Z,3.90
2023-12-30T10:24:32.089Z,5.18
2023-12-30T10:27:05.286Z,3.22
2023-12-30T10:29:42.958Z,3.25
2023-12-30T10:32:22.717Z,3.67
2023-12-30T10:34:50.560Z,4.13
2023-12-30T10:37:18.772Z,3.90
2023-12-30T10:39:49.381Z,3.80
2023-12-30T10:42:18.574Z,3.58
2023-12-30T10:44:47.667Z,4.55
2023-12-30T10:47:17.381Z,3.65
2023-12-30T10:49:49.625Z,3.83
2023-12-30T10:52:23.278Z,3.53
2023-12-30T10:55:01.231Z,4.45
2023-12-30T10:57:38.190Z,3.00
2023-12-30T11:00:10.388Z,3.03
2023-12-30T11:02:39.529Z,2.47
2023-12-30T11:05:09.980Z,2.83
2023-12-30T11:07:38.243Z,3.80
2023-12-30T11:10:17.809Z,2.77
2023-12-30T11:12:47.756Z,3.08
2023-12-30T11:15:26.201Z,3.00
2023-12-30T11:17:53.959Z,3.25
2023-12-30T11:20:27.270Z,2.70
2023-12-30T11:22:56.108Z,2.97
2023-12-30T11:25:24.061Z,3.60
2023-12-30T11:27:55.551Z,3.10
2023-12-30T11:30:28.104Z,2.78
2023-12-30T11:32:59.364Z,3.50
2023-12-30T11:35:28.248Z,3.00
2023-12-30T11:37:58.965Z,3.50
2023-12-30T11:40:29.385Z,4.05
2023-12-30T11:42:58.630Z,2.87
2023-12-30T11:45:27.777Z,3.07
2023-12-30T11:47:56.058Z,3.47
2023-12-30T11:50:24.010Z,3.27
2023-12-30T11:52:51.692Z,3.87
2023-12-30T11:55:19.697Z,3.43
2023-12-30T11:57:47.705Z,3.42
2023-12-30T12:00:17.221Z,3.40
2023-12-30T12:02:44.900Z,3.33
2023-12-30T12:05:13.288Z,3.27
2023-12-30T12:07:41.068Z,4.13
2023-12-30T12:10:09.853Z,3.07
2023-12-30T12:12:38.615Z,3.80
2023-12-30T12:15:09.061Z,2.30
2023-12-30T12:17:38.456Z,3.30
2023-12-30T12:20:11.718Z,3.60
2023-12-30T12:22:39.980Z,3.37
2023-12-30T12:25:10.597Z,3.20
2023-12-30T12:27:38.699Z,3.53
2023-12-30T12:30:10.354Z,3.13
2023-12-30T12:32:39.778Z,3.30
2023-12-30T12:35:08.253Z,3.90
2023-12-30T12:37:37.958Z,2.63
2023-12-30T12:40:11.748Z,2.73
2023-12-30T12:42:39.655Z,2.10
2023-12-30T12:45:08.524Z,2.20
2023-12-30T12:47:36.410Z,2.40
2023-12-30T12:50:06.442Z,2.90
2023-12-30T12:52:34.163Z,3.00
2023-12-30T12:55:02.005Z,2.57
2023-12-30T12:57:32.099Z,2.53
2023-12-30T13:00:00.240Z,3.87
2023-12-30T13:02:28.986Z,2.47
2023-12-30T13:04:59.123Z,2.50
2023-12-30T13:07:28.329Z,3.37
2023-12-30T13:09:59.700Z,3.20
2023-12-30T13:12:28.002Z,3.73
2023-12-30T13:14:59.424Z,3.17
2023-12-30T13:17:27.229Z,2.77
2023-12-30T13:19:54.963Z,2.30
2023-12-30T13:22:24.605Z,2.40
2023-12-30T13:24:53.700Z,2.70
2023-12-30T13:27:22.590Z,2.97
2023-12-30T13:29:50.247Z,4.83
2023-12-30T13:32:17.915Z,2.50
2023-12-30T13:34:52.945Z,2.50
2023-12-30T13:37:20.680Z,2.10
2023-12-30T13:39:48.361Z,2.20
2023-12-30T13:42:18.244Z,1.90
2023-12-30T13:44:47.333Z,3.10
2023-12-30T13:47:38.947Z,2.67
2023-12-30T13:50:14.968Z,4.30
2023-12-30T13:52:44.006Z,2.00
2023-12-30T13:55:14.274Z,1.97
2023-12-30T13:57:44.011Z,2.40
2023-12-30T14:00:14.793Z,2.63
2023-12-30T14:02:44.664Z,2.10
2023-12-30T14:05:18.898Z,2.37
2023-12-30T14:07:47.024Z,2.40
2023-12-30T14:10:19.414Z,2.67
2023-12-30T14:12:50.325Z,2.50
2023-12-30T14:15:19.057Z,2.93
2023-12-30T14:17:47.196Z,3.80
2023-12-30T14:20:15.016Z,1.83
2023-12-30T14:22:43.256Z,1.70
2023-12-30T14:25:12.420Z,1.97
2023-12-30T14:27:41.531Z,2.10
2023-12-30T14:30:12.983Z,2.10
2023-12-30T14:32:42.950Z,2.10
2023-12-30T14:35:11.479Z,2.33
2023-12-30T14:37:40.399Z,2.13
2023-12-30T14:40:09.948Z,1.50
2023-12-30T14:42:37.690Z,2.70
2023-12-30T14:45:08.017Z,2.37
2023-12-30T14:47:39.415Z,2.10
2023-12-30T14:50:09.700Z,1.87
2023-12-30T14:52:38.643Z,2.47
2023-12-30T14:55:09.677Z,2.20
2023-12-30T14:57:38.854Z,1.93
2023-12-30T15:00:12.018Z,1.90
2023-12-30T15:02:41.443Z,1.63
2023-12-30T15:05:11.530Z,1.70
2023-12-30T15:07:39.451Z,1.87
2023-12-30T15:10:09.075Z,1.70
2023-12-30T15:12:37.774Z,1.93
2023-12-30T15:15:06.256Z,2.30
2023-12-30T15:17:34.043Z,2.37
2023-12-30T15:20:04.908Z,2.20
2023-12-30T15:22:35.333Z,1.50
2023-12-30T15:25:03.231Z,2.22
2023-12-30T15:27:31.251Z,1.90
2023-12-30T15:29:58.975Z,1.90
2023-12-30T15:32:26.857Z,2.80
2023-12-30T15:34:54.882Z,2.80
2023-12-30T15:37:24.560Z,2.30
2023-12-30T15:39:52.411Z,2.10
2023-12-30T15:42:20.122Z,3.00
2023-12-30T15:44:50.644Z,2.25
2023-12-30T15:47:18.310Z,2.05
2023-12-30T15:49:46.613Z,2.23
2023-12-30T15:52:14.477Z,2.10
2023-12-30T15:54:44.527Z,2.72
2023-12-30T15:57:12.191Z,2.10
2023-12-30T15:59:39.956Z,2.20
2023-12-30T16:02:07.938Z,2.50
2023-12-30T16:04:36.247Z,1.67
2023-12-30T16:07:04.447Z,1.93
2023-12-30T16:09:32.298Z,2.43
2023-12-30T16:12:01.402Z,2.22
2023-12-30T16:14:29.066Z,1.88
2023-12-30T16:16:56.930Z,2.13
2023-12-30T16:19:24.775Z,2.17
2023-12-30T16:21:52.994Z,2.10
2023-12-30T16:24:21.255Z,1.95
2023-12-30T16:26:49.136Z,1.95
2023-12-30T16:29:18.258Z,2.25
2023-12-30T16:31:45.988Z,1.67
2023-12-30T16:34:14.153Z,2.50
2023-12-30T16:36:42.002Z,1.95
2023-12-30T16:39:11.056Z,3.83
2023-12-30T16:41:38.737Z,2.10
2023-12-30T16:44:08.013Z,2.20
2023-12-30T16:46:37.241Z,2.85
2023-12-30T16:49:05.810Z,3.25
2023-12-30T16:51:34.757Z,3.07
2023-12-30T16:54:03.519Z,3.00
2023-12-30T16:56:31.305Z,2.50
2023-12-30T16:59:00.387Z,2.30
2023-12-30T17:01:28.263Z,1.80
2023-12-30T17:03:57.659Z,2.37
2023-12-30T17:06:25.323Z,1.65
2023-12-30T17:08:53.121Z,2.23
2023-12-30T17:11:20.800Z,2.00
2023-12-30T17:13:53.728Z,1.70
2023-12-30T17:16:22.426Z,1.67
2023-12-30T17:18:50.311Z,2.10
2023-12-30T17:21:19.331Z,2.13
2023-12-30T17:23:46.983Z,1.98
2023-12-30T17:26:14.817Z,1.92
2023-12-30T17:28:42.753Z,2.10
2023-12-30T17:31:10.761Z,2.17
2023-12-30T17:33:39.299Z,1.75
2023-12-30T17:36:07.606Z,2.20
2023-12-30T17:38:36.704Z,1.92
2023-12-30T17:41:04.745Z,1.85
2023-12-30T17:43:32.421Z,1.53
2023-12-30T17:46:00.150Z,1.50
2023-12-30T17:48:28.094Z,2.03
2023-12-30T17:50:55.915Z,1.42
2023-12-30T17:53:23.636Z,1.35
2023-12-30T17:55:52.724Z,1.37
2023-12-30T17:58:22.638Z,1.48
2023-12-30T18:00:51.148Z,1.50
2023-12-30T18:03:19.000Z,1.25
2023-12-30T18:05:46.789Z,1.40
2023-12-30T18:08:14.473Z,1.27
2023-12-30T18:10:42.300Z,1.27
2023-12-30T18:13:11.560Z,1.63
2023-12-30T18:15:39.269Z,1.13
2023-12-30T18:18:09.661Z,1.90
2023-12-30T18:20:37.716Z,1.60
2023-12-30T18:23:05.756Z,1.88
2023-12-30T18:25:35.720Z,1.60
2023-12-30T18:28:04.003Z,1.95
2023-12-30T18:30:34.348Z,1.40
2023-12-30T18:33:02.346Z,1.60
2023-12-30T18:35:30.260Z,1.98
2023-12-30T18:37:58.290Z,2.35
2023-12-30T18:40:25.966Z,1.80
2023-12-30T18:42:53.687Z,2.40
2023-12-30T18:45:21.385Z,2.00
2023-12-30T18:47:50.455Z,1.80
2023-12-30T18:50:18.153Z,1.95
2023-12-30T18:52:47.237Z,1.20
2023-12-30T18:55:15.311Z,1.52
2023-12-30T18:57:43.190Z,2.10
2023-12-30T19:00:12.183Z,1.20
2023-12-30T19:02:42.030Z,1.63
2023-12-30T19:05:12.255Z,1.80
2023-12-30T19:07:40.106Z,1.92
2023-12-30T19:10:08.983Z,2.38
2023-12-30T19:12:36.805Z,1.80
2023-12-30T19:15:06.290Z,1.58
2023-12-30T19:17:34.072Z,1.90
2023-12-30T19:20:01.773Z,1.83
2023-12-30T19:22:30.824Z,1.95
2023-12-30T19:24:59.592Z,1.50
2023-12-30T19:27:27.346Z,2.35
2023-12-30T19:29:55.149Z,2.28
2023-12-30T19:32:22.854Z,1.50
2023-12-30T19:34:50.553Z,2.00
2023-12-30T19:37:18.593Z,1.20
2023-12-30T19:39:47.600Z,1.67
2023-12-30T19:42:15.238Z,1.83
2023-12-30T19:44:43.481Z,2.05
2023-12-30T19:47:11.205Z,1.90
2023-12-30T19:49:38.930Z,1.95
2023-12-30T19:52:07.026Z,1.40
2023-12-30T19:54:36.096Z,1.50
2023-12-30T19:57:05.315Z,1.40
2023-12-30T19:59:34.081Z,2.00
2023-12-30T20:02:01.790Z,1.75
2023-12-30T20:04:29.601Z,1.50
2023-12-30T20:06:57.426Z,1.35
2023-12-30T20:09:25.078Z,1.70
2023-12-30T20:11:52.719Z,1.83
2023-12-30T20:14:21.719Z,1.60
2023-12-30T20:16:49.426Z,1.25
2023-12-30T20:19:17.228Z,1.13
2023-12-30T20:21:44.961Z,1.58
2023-12-30T20:24:12.626Z,1.30
2023-12-30T20:26:40.432Z,1.80
2023-12-30T20:29:08.148Z,1.27
2023-12-30T20:31:38.543Z,1.30
2023-12-30T20:34:06.401Z,1.60
2023-12-30T20:36:35.329Z,1.10
2023-12-30T20:39:03.248Z,1.35
2023-12-30T20:41:30.903Z,1.20
2023-12-30T20:43:58.715Z,1.20
2023-12-30T20:46:26.521Z,1.33
2023-12-30T20:48:55.656Z,1.10
2023-12-30T20:51:23.400Z,1.13
2023-12-30T20:53:53.283Z,1.30
2023-12-30T20:56:21.003Z,1.50
2023-12-30T20:58:48.767Z,1.33
2023-12-30T21:01:16.538Z,1.50
2023-12-30T21:03:44.328Z,1.30
2023-12-30T21:06:13.506Z,0.90
2023-12-30T21:08:43.818Z,1.50
2023-12-30T21:11:11.488Z,1.27
2023-12-30T21:13:41.013Z,1.92
2023-12-30T21:16:08.752Z,1.25
2023-12-30T21:18:37.327Z,1.50
2023-12-30T21:21:05.304Z,1.60
2023-12-30T21:23:34.331Z,1.40
2023-12-30T21:26:03.878Z,1.85
2023-12-30T21:28:33.238Z,1.40
2023-12-30T21:31:01.537Z,1.58
2023-12-30T21:33:29.359Z,1.60
2023-12-30T21:35:59.874Z,1.30
2023-12-30T21:38:28.186Z,1.40
2023-12-30T21:40:57.269Z,0.95
2023-12-30T21:43:25.237Z,1.58
2023-12-30T21:45:54.265Z,1.10
2023-12-30T21:48:22.123Z,1.25
2023-12-30T21:50:50.305Z,1.50
2023-12-30T21:53:18.055Z,1.45
2023-12-30T21:55:46.064Z,1.30
2023-12-30T21:58:15.306Z,1.15
2023-12-30T22:00:43.324Z,2.85
2023-12-30T22:03:11.161Z,1.60
2023-12-30T22:05:39.002Z,1.25
2023-12-30T22:08:07.566Z,1.13
2023-12-30T22:10:35.265Z,1.17
2023-12-30T22:13:03.173Z,1.10
2023-12-30T22:15:32.501Z,1.30
2023-12-30T22:18:00.425Z,1.50
2023-12-30T22:20:28.333Z,0.80
2023-12-30T22:22:56.042Z,1.20
2023-12-30T22:25:23.789Z,1.20
2023-12-30T22:27:52.688Z,1.40
2023-12-30T22:30:20.679Z,1.40
2023-12-30T22:32:50.120Z,1.20
2023-12-30T22:35:17.996Z,1.65
2023-12-30T22:37:45.732Z,1.20
2023-12-30T22:40:13.664Z,0.95
2023-12-30T22:42:41.432Z,1.13
2023-12-30T22:45:10.089Z,1.10
2023-12-30T22:47:38.258Z,1.20
2023-12-30T22:50:09.251Z,1.20
2023-12-30T22:52:38.133Z,1.20
2023-12-30T22:55:06.879Z,0.98
2023-12-30T22:57:35.211Z,1.20
2023-12-30T23:00:03.132Z,1.30
2023-12-30T23:02:30.961Z,1.20
2023-12-30T23:04:58.689Z,1.05
2023-12-30T23:07:27.825Z,1.30
2023-12-30T23:09:55.701Z,1.10
2023-12-30T23:12:23.388Z,1.40
2023-12-30T23:14:51.089Z,1.35
2023-12-30T23:17:18.817Z,1.30
2023-12-30T23:19:47.453Z,1.35
2023-12-30T23:22:15.376Z,1.13
2023-12-30T23:24:44.469Z,1.27
2023-12-30T23:27:12.265Z,1.10
2023-12-30T23:29:40.098Z,2.22
2023-12-30T23:32:08.348Z,1.27
2023-12-30T23:34:43.028Z,1.63
2023-12-30T23:37:16.894Z,1.30
2023-12-30T23:39:47.070Z,1.50
2023-12-30T23:42:15.044Z,1.17
2023-12-30T23:44:44.563Z,1.20
2023-12-30T23:47:12.351Z,1.30
2023-12-30T23:49:40.144Z,1.08
2023-12-30T23:52:07.988Z,1.50
2023-12-30T23:54:35.718Z,1.42
2023-12-30T23:57:05.420Z,1.23
2023-12-30T23:59:33.163Z,0.90
